sensor_id;sensor_type;location;lat;lon;timestamp;P1;durP1;ratioP1;P2;durP2;ratioP2
22737;SDS011;11536;50.860;4.286;2023-11-21T00:02:12;25.52;;;10.77;;
22737;SDS011;11536;50.860;4.286;2023-11-21T00:04:37;24.45;;;10.75;;
22737;SDS011;11536;50.860;4.286;2023-11-21T00:07:03;23.63;;;9.88;;
22737;SDS011;11536;50.860;4.286;2023-11-21T00:09:29;24.17;;;10.20;;
22737;SDS011;11536;50.860;4.286;2023-11-21T00:11:54;23.67;;;10.60;;
22737;SDS011;11536;50.860;4.286;2023-11-21T00:14:20;25.42;;;10.45;;
22737;SDS011;11536;50.860;4.286;2023-11-21T00:16:45;24.35;;;10.85;;
22737;SDS011;11536;50.860;4.286;2023-11-21T00:19:11;25.17;;;10.63;;
22737;SDS011;11536;50.860;4.286;2023-11-21T00:21:37;25.45;;;9.73;;
22737;SDS011;11536;50.860;4.286;2023-11-21T00:24:03;24.95;;;10.32;;
22737;SDS011;11536;50.860;4.286;2023-11-21T00:26:28;26.65;;;11.48;;
22737;SDS011;11536;50.860;4.286;2023-11-21T00:28:56;24.35;;;10.20;;
22737;SDS011;11536;50.860;4.286;2023-11-21T00:31:21;28.13;;;11.38;;
22737;SDS011;11536;50.860;4.286;2023-11-21T00:33:47;27.60;;;10.77;;
22737;SDS011;11536;50.860;4.286;2023-11-21T00:36:13;24.83;;;10.35;;
22737;SDS011;11536;50.860;4.286;2023-11-21T00:38:38;29.83;;;11.48;;
22737;SDS011;11536;50.860;4.286;2023-11-21T00:41:05;24.58;;;10.45;;
22737;SDS011;11536;50.860;4.286;2023-11-21T00:43:31;26.45;;;10.18;;
22737;SDS011;11536;50.860;4.286;2023-11-21T00:45:58;23.27;;;9.45;;
22737;SDS011;11536;50.860;4.286;2023-11-21T00:48:24;22.15;;;9.23;;
22737;SDS011;11536;50.860;4.286;2023-11-21T00:50:49;27.90;;;11.20;;
22737;SDS011;11536;50.860;4.286;2023-11-21T00:53:15;22.52;;;9.25;;
22737;SDS011;11536;50.860;4.286;2023-11-21T00:55:41;28.23;;;10.77;;
22737;SDS011;11536;50.860;4.286;2023-11-21T00:58:06;23.25;;;9.50;;
22737;SDS011;11536;50.860;4.286;2023-11-21T01:00:33;28.38;;;9.73;;
22737;SDS011;11536;50.860;4.286;2023-11-21T01:02:59;26.08;;;10.45;;
22737;SDS011;11536;50.860;4.286;2023-11-21T01:05:25;24.65;;;10.68;;
22737;SDS011;11536;50.860;4.286;2023-11-21T01:07:50;22.20;;;9.65;;
22737;SDS011;11536;50.860;4.286;2023-11-21T01:10:16;21.42;;;9.45;;
22737;SDS011;11536;50.860;4.286;2023-11-21T01:12:42;24.58;;;9.65;;
22737;SDS011;11536;50.860;4.286;2023-11-21T01:15:08;23.38;;;8.93;;
22737;SDS011;11536;50.860;4.286;2023-11-21T01:17:34;21.85;;;9.70;;
22737;SDS011;11536;50.860;4.286;2023-11-21T01:20:00;26.75;;;10.40;;
22737;SDS011;11536;50.860;4.286;2023-11-21T01:22:28;24.05;;;10.10;;
22737;SDS011;11536;50.860;4.286;2023-11-21T01:24:53;22.70;;;10.10;;
22737;SDS011;11536;50.860;4.286;2023-11-21T01:27:19;22.60;;;9.50;;
22737;SDS011;11536;50.860;4.286;2023-11-21T01:29:45;22.92;;;10.43;;
22737;SDS011;11536;50.860;4.286;2023-11-21T01:32:11;22.30;;;10.02;;
22737;SDS011;11536;50.860;4.286;2023-11-21T01:34:36;22.45;;;9.02;;
22737;SDS011;11536;50.860;4.286;2023-11-21T01:37:02;24.55;;;10.07;;
22737;SDS011;11536;50.860;4.286;2023-11-21T01:39:30;25.40;;;10.40;;
22737;SDS011;11536;50.860;4.286;2023-11-21T01:41:56;23.40;;;9.88;;
22737;SDS011;11536;50.860;4.286;2023-11-21T01:44:23;26.60;;;9.85;;
22737;SDS011;11536;50.860;4.286;2023-11-21T01:46:52;23.58;;;9.52;;
22737;SDS011;11536;50.860;4.286;2023-11-21T01:49:18;20.33;;;8.98;;
22737;SDS011;11536;50.860;4.286;2023-11-21T01:51:46;22.73;;;8.80;;
22737;SDS011;11536;50.860;4.286;2023-11-21T01:54:14;22.42;;;9.70;;
22737;SDS011;11536;50.860;4.286;2023-11-21T01:56:42;20.55;;;8.18;;
22737;SDS011;11536;50.860;4.286;2023-11-21T01:59:10;25.33;;;9.48;;
22737;SDS011;11536;50.860;4.286;2023-11-21T02:01:39;20.60;;;9.93;;
22737;SDS011;11536;50.860;4.286;2023-11-21T02:04:04;21.00;;;9.05;;
22737;SDS011;11536;50.860;4.286;2023-11-21T02:06:30;19.00;;;8.82;;
22737;SDS011;11536;50.860;4.286;2023-11-21T02:08:56;20.30;;;9.20;;
22737;SDS011;11536;50.860;4.286;2023-11-21T02:11:21;17.70;;;7.82;;
22737;SDS011;11536;50.860;4.286;2023-11-21T02:13:47;22.92;;;9.95;;
22737;SDS011;11536;50.860;4.286;2023-11-21T02:16:15;18.85;;;9.18;;
22737;SDS011;11536;50.860;4.286;2023-11-21T02:18:40;20.83;;;9.48;;
22737;SDS011;11536;50.860;4.286;2023-11-21T02:21:06;20.42;;;8.50;;
22737;SDS011;11536;50.860;4.286;2023-11-21T02:23:33;19.73;;;8.13;;
22737;SDS011;11536;50.860;4.286;2023-11-21T02:25:58;17.48;;;7.85;;
22737;SDS011;11536;50.860;4.286;2023-11-21T02:28:24;15.35;;;7.30;;
22737;SDS011;11536;50.860;4.286;2023-11-21T02:30:52;16.27;;;7.00;;
22737;SDS011;11536;50.860;4.286;2023-11-21T02:33:22;19.38;;;8.13;;
22737;SDS011;11536;50.860;4.286;2023-11-21T02:35:48;15.55;;;7.50;;
22737;SDS011;11536;50.860;4.286;2023-11-21T02:38:14;15.95;;;7.60;;
22737;SDS011;11536;50.860;4.286;2023-11-21T02:40:40;13.15;;;6.97;;
22737;SDS011;11536;50.860;4.286;2023-11-21T02:43:06;14.88;;;6.40;;
22737;SDS011;11536;50.860;4.286;2023-11-21T02:45:32;13.38;;;6.32;;
22737;SDS011;11536;50.860;4.286;2023-11-21T02:47:58;13.57;;;6.00;;
22737;SDS011;11536;50.860;4.286;2023-11-21T02:50:24;17.15;;;6.65;;
22737;SDS011;11536;50.860;4.286;2023-11-21T02:52:50;15.57;;;5.82;;
22737;SDS011;11536;50.860;4.286;2023-11-21T02:55:16;11.82;;;5.13;;
22737;SDS011;11536;50.860;4.286;2023-11-21T02:57:41;11.07;;;5.40;;
22737;SDS011;11536;50.860;4.286;2023-11-21T03:00:07;11.35;;;5.43;;
22737;SDS011;11536;50.860;4.286;2023-11-21T03:02:34;12.93;;;5.20;;
22737;SDS011;11536;50.860;4.286;2023-11-21T03:05:04;12.65;;;4.82;;
22737;SDS011;11536;50.860;4.286;2023-11-21T03:07:30;15.73;;;5.32;;
22737;SDS011;11536;50.860;4.286;2023-11-21T03:09:56;12.93;;;5.25;;
22737;SDS011;11536;50.860;4.286;2023-11-21T03:12:22;12.30;;;5.82;;
22737;SDS011;11536;50.860;4.286;2023-11-21T03:14:48;14.93;;;5.78;;
22737;SDS011;11536;50.860;4.286;2023-11-21T03:17:13;11.13;;;5.30;;
22737;SDS011;11536;50.860;4.286;2023-11-21T03:19:41;10.60;;;4.90;;
22737;SDS011;11536;50.860;4.286;2023-11-21T03:22:07;14.95;;;5.15;;
22737;SDS011;11536;50.860;4.286;2023-11-21T03:24:33;11.88;;;6.00;;
22737;SDS011;11536;50.860;4.286;2023-11-21T03:26:59;16.92;;;6.45;;
22737;SDS011;11536;50.860;4.286;2023-11-21T03:29:25;16.95;;;6.53;;
22737;SDS011;11536;50.860;4.286;2023-11-21T03:31:51;16.52;;;6.95;;
22737;SDS011;11536;50.860;4.286;2023-11-21T03:34:23;16.13;;;6.68;;
22737;SDS011;11536;50.860;4.286;2023-11-21T03:36:50;15.77;;;6.35;;
22737;SDS011;11536;50.860;4.286;2023-11-21T03:39:17;12.15;;;6.10;;
22737;SDS011;11536;50.860;4.286;2023-11-21T03:41:43;20.83;;;6.95;;
22737;SDS011;11536;50.860;4.286;2023-11-21T03:44:10;14.27;;;7.20;;
22737;SDS011;11536;50.860;4.286;2023-11-21T03:46:35;14.77;;;6.05;;
22737;SDS011;11536;50.860;4.286;2023-11-21T03:49:01;13.20;;;6.57;;
22737;SDS011;11536;50.860;4.286;2023-11-21T03:51:27;12.23;;;5.85;;
22737;SDS011;11536;50.860;4.286;2023-11-21T03:53:52;16.58;;;6.85;;
22737;SDS011;11536;50.860;4.286;2023-11-21T03:56:18;14.68;;;7.15;;
22737;SDS011;11536;50.860;4.286;2023-11-21T03:58:46;15.52;;;7.22;;
22737;SDS011;11536;50.860;4.286;2023-11-21T04:01:23;15.15;;;7.43;;
22737;SDS011;11536;50.860;4.286;2023-11-21T04:03:49;14.85;;;7.35;;
22737;SDS011;11536;50.860;4.286;2023-11-21T04:06:16;16.33;;;7.45;;
22737;SDS011;11536;50.860;4.286;2023-11-21T04:08:42;16.92;;;7.63;;
22737;SDS011;11536;50.860;4.286;2023-11-21T04:11:09;18.33;;;8.48;;
22737;SDS011;11536;50.860;4.286;2023-11-21T04:13:37;19.25;;;9.80;;
22737;SDS011;11536;50.860;4.286;2023-11-21T04:16:04;18.60;;;7.80;;
22737;SDS011;11536;50.860;4.286;2023-11-21T04:18:30;19.08;;;8.52;;
22737;SDS011;11536;50.860;4.286;2023-11-21T04:20:56;18.38;;;8.23;;
22737;SDS011;11536;50.860;4.286;2023-11-21T04:23:22;18.13;;;8.05;;
22737;SDS011;11536;50.860;4.286;2023-11-21T04:25:47;17.80;;;9.02;;
22737;SDS011;11536;50.860;4.286;2023-11-21T04:28:13;17.75;;;8.00;;
22737;SDS011;11536;50.860;4.286;2023-11-21T04:30:38;18.83;;;8.18;;
22737;SDS011;11536;50.860;4.286;2023-11-21T04:33:04;18.98;;;8.93;;
22737;SDS011;11536;50.860;4.286;2023-11-21T04:35:30;19.98;;;9.20;;
22737;SDS011;11536;50.860;4.286;2023-11-21T04:37:55;19.60;;;9.75;;
22737;SDS011;11536;50.860;4.286;2023-11-21T04:40:22;18.58;;;8.93;;
22737;SDS011;11536;50.860;4.286;2023-11-21T04:42:48;22.50;;;9.77;;
22737;SDS011;11536;50.860;4.286;2023-11-21T04:45:13;21.67;;;9.23;;
22737;SDS011;11536;50.860;4.286;2023-11-21T04:47:39;22.20;;;10.27;;
22737;SDS011;11536;50.860;4.286;2023-11-21T04:50:05;20.15;;;9.25;;
22737;SDS011;11536;50.860;4.286;2023-11-21T04:52:31;22.83;;;9.70;;
22737;SDS011;11536;50.860;4.286;2023-11-21T04:54:58;20.63;;;8.95;;
22737;SDS011;11536;50.860;4.286;2023-11-21T04:57:26;22.40;;;9.65;;
22737;SDS011;11536;50.860;4.286;2023-11-21T04:59:53;18.00;;;9.35;;
22737;SDS011;11536;50.860;4.286;2023-11-21T05:02:19;21.63;;;9.07;;
22737;SDS011;11536;50.860;4.286;2023-11-21T05:04:46;20.27;;;9.65;;
22737;SDS011;11536;50.860;4.286;2023-11-21T05:07:12;21.23;;;11.00;;
22737;SDS011;11536;50.860;4.286;2023-11-21T05:09:44;21.27;;;9.10;;
22737;SDS011;11536;50.860;4.286;2023-11-21T05:12:11;23.25;;;9.88;;
22737;SDS011;11536;50.860;4.286;2023-11-21T05:14:37;19.38;;;9.90;;
22737;SDS011;11536;50.860;4.286;2023-11-21T05:17:03;18.83;;;8.95;;
22737;SDS011;11536;50.860;4.286;2023-11-21T05:19:29;24.08;;;10.07;;
22737;SDS011;11536;50.860;4.286;2023-11-21T05:21:55;20.38;;;10.02;;
22737;SDS011;11536;50.860;4.286;2023-11-21T05:24:20;22.50;;;9.98;;
22737;SDS011;11536;50.860;4.286;2023-11-21T05:26:46;20.45;;;9.77;;
22737;SDS011;11536;50.860;4.286;2023-11-21T05:29:11;23.10;;;10.00;;
22737;SDS011;11536;50.860;4.286;2023-11-21T05:31:37;19.15;;;9.98;;
22737;SDS011;11536;50.860;4.286;2023-11-21T05:34:03;23.20;;;9.95;;
22737;SDS011;11536;50.860;4.286;2023-11-21T05:36:30;16.67;;;9.13;;
22737;SDS011;11536;50.860;4.286;2023-11-21T05:38:56;17.60;;;8.48;;
22737;SDS011;11536;50.860;4.286;2023-11-21T05:41:21;18.55;;;9.38;;
22737;SDS011;11536;50.860;4.286;2023-11-21T05:43:48;20.80;;;9.80;;
22737;SDS011;11536;50.860;4.286;2023-11-21T05:46:13;19.83;;;9.30;;
22737;SDS011;11536;50.860;4.286;2023-11-21T05:48:39;20.52;;;9.48;;
22737;SDS011;11536;50.860;4.286;2023-11-21T05:51:06;18.17;;;8.95;;
22737;SDS011;11536;50.860;4.286;2023-11-21T05:53:31;22.48;;;10.13;;
22737;SDS011;11536;50.860;4.286;2023-11-21T05:55:57;16.98;;;8.77;;
22737;SDS011;11536;50.860;4.286;2023-11-21T05:58:23;16.15;;;9.05;;
22737;SDS011;11536;50.860;4.286;2023-11-21T06:00:49;20.92;;;10.20;;
22737;SDS011;11536;50.860;4.286;2023-11-21T06:03:14;17.35;;;9.32;;
22737;SDS011;11536;50.860;4.286;2023-11-21T06:05:40;20.38;;;9.43;;
22737;SDS011;11536;50.860;4.286;2023-11-21T06:08:05;18.73;;;10.05;;
22737;SDS011;11536;50.860;4.286;2023-11-21T06:10:32;18.60;;;9.50;;
22737;SDS011;11536;50.860;4.286;2023-11-21T06:12:58;18.27;;;9.05;;
22737;SDS011;11536;50.860;4.286;2023-11-21T06:15:23;19.65;;;9.15;;
22737;SDS011;11536;50.860;4.286;2023-11-21T06:17:49;21.50;;;10.23;;
22737;SDS011;11536;50.860;4.286;2023-11-21T06:20:17;20.40;;;9.63;;
22737;SDS011;11536;50.860;4.286;2023-11-21T06:22:44;24.38;;;9.77;;
22737;SDS011;11536;50.860;4.286;2023-11-21T06:25:12;18.17;;;9.02;;
22737;SDS011;11536;50.860;4.286;2023-11-21T06:27:40;18.73;;;9.38;;
22737;SDS011;11536;50.860;4.286;2023-11-21T06:30:07;17.10;;;9.02;;
22737;SDS011;11536;50.860;4.286;2023-11-21T06:32:34;19.98;;;9.48;;
22737;SDS011;11536;50.860;4.286;2023-11-21T06:35:01;19.33;;;8.70;;
22737;SDS011;11536;50.860;4.286;2023-11-21T06:37:29;21.15;;;9.93;;
22737;SDS011;11536;50.860;4.286;2023-11-21T06:39:56;18.70;;;9.20;;
22737;SDS011;11536;50.860;4.286;2023-11-21T06:42:23;16.20;;;9.30;;
22737;SDS011;11536;50.860;4.286;2023-11-21T06:44:49;20.38;;;9.55;;
22737;SDS011;11536;50.860;4.286;2023-11-21T06:47:17;23.25;;;10.70;;
22737;SDS011;11536;50.860;4.286;2023-11-21T06:49:43;18.27;;;10.20;;
22737;SDS011;11536;50.860;4.286;2023-11-21T06:52:09;17.35;;;9.07;;
22737;SDS011;11536;50.860;4.286;2023-11-21T06:54:34;21.23;;;10.82;;
22737;SDS011;11536;50.860;4.286;2023-11-21T06:57:01;20.20;;;10.15;;
22737;SDS011;11536;50.860;4.286;2023-11-21T06:59:30;22.67;;;10.18;;
22737;SDS011;11536;50.860;4.286;2023-11-21T07:01:56;19.58;;;9.43;;
22737;SDS011;11536;50.860;4.286;2023-11-21T07:04:22;23.60;;;10.20;;
22737;SDS011;11536;50.860;4.286;2023-11-21T07:06:49;20.10;;;9.90;;
22737;SDS011;11536;50.860;4.286;2023-11-21T07:09:14;17.25;;;8.00;;
22737;SDS011;11536;50.860;4.286;2023-11-21T07:11:40;19.67;;;9.68;;
22737;SDS011;11536;50.860;4.286;2023-11-21T07:14:06;18.45;;;10.02;;
22737;SDS011;11536;50.860;4.286;2023-11-21T07:16:34;20.83;;;9.60;;
22737;SDS011;11536;50.860;4.286;2023-11-21T07:19:02;20.73;;;9.80;;
22737;SDS011;11536;50.860;4.286;2023-11-21T07:21:31;21.05;;;10.38;;
22737;SDS011;11536;50.860;4.286;2023-11-21T07:23:58;19.67;;;9.45;;
22737;SDS011;11536;50.860;4.286;2023-11-21T07:26:28;17.42;;;9.02;;
22737;SDS011;11536;50.860;4.286;2023-11-21T07:28:54;19.55;;;9.35;;
22737;SDS011;11536;50.860;4.286;2023-11-21T07:31:20;25.25;;;10.25;;
22737;SDS011;11536;50.860;4.286;2023-11-21T07:33:46;17.25;;;9.35;;
22737;SDS011;11536;50.860;4.286;2023-11-21T07:36:12;19.45;;;9.77;;
22737;SDS011;11536;50.860;4.286;2023-11-21T07:38:38;22.40;;;10.13;;
22737;SDS011;11536;50.860;4.286;2023-11-21T07:41:05;21.65;;;10.38;;
22737;SDS011;11536;50.860;4.286;2023-11-21T07:43:32;21.85;;;9.40;;
22737;SDS011;11536;50.860;4.286;2023-11-21T07:46:03;20.67;;;9.95;;
22737;SDS011;11536;50.860;4.286;2023-11-21T07:48:30;16.65;;;9.73;;
22737;SDS011;11536;50.860;4.286;2023-11-21T07:50:56;19.65;;;10.07;;
22737;SDS011;11536;50.860;4.286;2023-11-21T07:53:25;23.10;;;10.30;;
22737;SDS011;11536;50.860;4.286;2023-11-21T07:55:54;20.05;;;10.13;;
22737;SDS011;11536;50.860;4.286;2023-11-21T07:58:20;19.83;;;10.38;;
22737;SDS011;11536;50.860;4.286;2023-11-21T08:00:46;20.40;;;9.68;;
22737;SDS011;11536;50.860;4.286;2023-11-21T08:03:15;21.85;;;9.65;;
22737;SDS011;11536;50.860;4.286;2023-11-21T08:05:41;28.65;;;10.68;;
22737;SDS011;11536;50.860;4.286;2023-11-21T08:08:08;17.00;;;8.68;;
22737;SDS011;11536;50.860;4.286;2023-11-21T08:10:33;23.35;;;10.23;;
22737;SDS011;11536;50.860;4.286;2023-11-21T08:13:00;22.63;;;10.52;;
22737;SDS011;11536;50.860;4.286;2023-11-21T08:15:26;23.10;;;10.38;;
22737;SDS011;11536;50.860;4.286;2023-11-21T08:17:52;21.75;;;10.30;;
22737;SDS011;11536;50.860;4.286;2023-11-21T08:20:17;22.02;;;9.45;;
22737;SDS011;11536;50.860;4.286;2023-11-21T08:22:43;20.58;;;10.63;;
22737;SDS011;11536;50.860;4.286;2023-11-21T08:25:09;19.30;;;9.25;;
22737;SDS011;11536;50.860;4.286;2023-11-21T08:27:35;17.73;;;9.63;;
22737;SDS011;11536;50.860;4.286;2023-11-21T08:30:02;17.02;;;9.07;;
22737;SDS011;11536;50.860;4.286;2023-11-21T08:32:28;19.77;;;10.00;;
22737;SDS011;11536;50.860;4.286;2023-11-21T08:34:57;24.38;;;9.77;;
22737;SDS011;11536;50.860;4.286;2023-11-21T08:37:22;30.38;;;11.45;;
22737;SDS011;11536;50.860;4.286;2023-11-21T08:39:49;20.63;;;10.13;;
22737;SDS011;11536;50.860;4.286;2023-11-21T08:42:14;21.63;;;9.73;;
22737;SDS011;11536;50.860;4.286;2023-11-21T08:44:40;21.15;;;10.10;;
22737;SDS011;11536;50.860;4.286;2023-11-21T08:47:06;24.30;;;10.50;;
22737;SDS011;11536;50.860;4.286;2023-11-21T08:49:32;25.38;;;10.98;;
22737;SDS011;11536;50.860;4.286;2023-11-21T08:51:58;25.42;;;12.13;;
22737;SDS011;11536;50.860;4.286;2023-11-21T08:54:24;24.80;;;11.32;;
22737;SDS011;11536;50.860;4.286;2023-11-21T08:56:51;24.90;;;11.00;;
22737;SDS011;11536;50.860;4.286;2023-11-21T08:59:17;23.00;;;11.93;;
22737;SDS011;11536;50.860;4.286;2023-11-21T09:01:42;21.50;;;10.38;;
22737;SDS011;11536;50.860;4.286;2023-11-21T09:04:08;22.98;;;11.45;;
22737;SDS011;11536;50.860;4.286;2023-11-21T09:06:34;23.95;;;11.27;;
22737;SDS011;11536;50.860;4.286;2023-11-21T09:09:00;23.13;;;11.20;;
22737;SDS011;11536;50.860;4.286;2023-11-21T09:11:25;25.25;;;11.75;;
22737;SDS011;11536;50.860;4.286;2023-11-21T09:13:56;26.35;;;11.13;;
22737;SDS011;11536;50.860;4.286;2023-11-21T09:16:23;25.20;;;11.23;;
22737;SDS011;11536;50.860;4.286;2023-11-21T09:18:48;27.23;;;12.10;;
22737;SDS011;11536;50.860;4.286;2023-11-21T09:21:14;23.65;;;10.48;;
22737;SDS011;11536;50.860;4.286;2023-11-21T09:23:39;22.90;;;11.30;;
22737;SDS011;11536;50.860;4.286;2023-11-21T09:26:05;25.88;;;11.45;;
22737;SDS011;11536;50.860;4.286;2023-11-21T09:28:30;28.13;;;11.80;;
22737;SDS011;11536;50.860;4.286;2023-11-21T09:30:56;24.95;;;10.80;;
22737;SDS011;11536;50.860;4.286;2023-11-21T09:33:22;26.20;;;11.23;;
22737;SDS011;11536;50.860;4.286;2023-11-21T09:35:49;24.55;;;10.25;;
22737;SDS011;11536;50.860;4.286;2023-11-21T09:38:16;19.67;;;9.88;;
22737;SDS011;11536;50.860;4.286;2023-11-21T09:40:41;25.00;;;10.70;;
22737;SDS011;11536;50.860;4.286;2023-11-21T09:43:14;26.95;;;10.52;;
22737;SDS011;11536;50.860;4.286;2023-11-21T09:45:45;26.52;;;12.45;;
22737;SDS011;11536;50.860;4.286;2023-11-21T09:48:12;26.70;;;11.20;;
22737;SDS011;11536;50.860;4.286;2023-11-21T09:50:39;20.05;;;10.15;;
22737;SDS011;11536;50.860;4.286;2023-11-21T09:55:43;19.65;;;9.82;;
22737;SDS011;11536;50.860;4.286;2023-11-21T09:58:11;20.80;;;8.57;;
22737;SDS011;11536;50.860;4.286;2023-11-21T10:00:40;14.90;;;7.75;;
22737;SDS011;11536;50.860;4.286;2023-11-21T10:03:07;14.65;;;7.03;;
22737;SDS011;11536;50.860;4.286;2023-11-21T10:05:34;15.95;;;7.18;;
22737;SDS011;11536;50.860;4.286;2023-11-21T10:08:00;15.18;;;7.55;;
22737;SDS011;11536;50.860;4.286;2023-11-21T10:10:26;16.45;;;6.95;;
22737;SDS011;11536;50.860;4.286;2023-11-21T10:12:55;20.08;;;8.40;;
22737;SDS011;11536;50.860;4.286;2023-11-21T10:15:22;20.70;;;8.65;;
22737;SDS011;11536;50.860;4.286;2023-11-21T10:17:50;29.90;;;10.73;;
22737;SDS011;11536;50.860;4.286;2023-11-21T10:20:19;24.02;;;10.05;;
22737;SDS011;11536;50.860;4.286;2023-11-21T10:22:45;22.85;;;9.23;;
22737;SDS011;11536;50.860;4.286;2023-11-21T10:25:11;21.50;;;9.73;;
22737;SDS011;11536;50.860;4.286;2023-11-21T10:27:39;21.52;;;8.95;;
22737;SDS011;11536;50.860;4.286;2023-11-21T10:30:06;26.77;;;10.32;;
22737;SDS011;11536;50.860;4.286;2023-11-21T10:32:40;23.90;;;10.55;;
22737;SDS011;11536;50.860;4.286;2023-11-21T10:35:09;24.60;;;12.95;;
22737;SDS011;11536;50.860;4.286;2023-11-21T10:37:39;26.45;;;11.50;;
22737;SDS011;11536;50.860;4.286;2023-11-21T10:40:08;25.55;;;12.15;;
22737;SDS011;11536;50.860;4.286;2023-11-21T10:42:37;25.13;;;12.18;;
22737;SDS011;11536;50.860;4.286;2023-11-21T10:45:03;27.08;;;11.82;;
22737;SDS011;11536;50.860;4.286;2023-11-21T10:47:34;23.30;;;12.07;;
22737;SDS011;11536;50.860;4.286;2023-11-21T10:50:01;23.95;;;10.82;;
22737;SDS011;11536;50.860;4.286;2023-11-21T10:52:27;23.27;;;11.05;;
22737;SDS011;11536;50.860;4.286;2023-11-21T10:54:52;21.92;;;10.98;;
22737;SDS011;11536;50.860;4.286;2023-11-21T10:57:18;22.45;;;10.13;;
22737;SDS011;11536;50.860;4.286;2023-11-21T10:59:47;21.70;;;10.55;;
22737;SDS011;11536;50.860;4.286;2023-11-21T11:02:23;21.40;;;10.15;;
22737;SDS011;11536;50.860;4.286;2023-11-21T11:04:53;18.05;;;9.60;;
22737;SDS011;11536;50.860;4.286;2023-11-21T11:07:25;20.55;;;9.30;;
22737;SDS011;11536;50.860;4.286;2023-11-21T11:09:53;24.67;;;10.25;;
22737;SDS011;11536;50.860;4.286;2023-11-21T11:12:20;19.35;;;9.70;;
22737;SDS011;11536;50.860;4.286;2023-11-21T11:14:46;17.33;;;9.00;;
22737;SDS011;11536;50.860;4.286;2023-11-21T11:17:13;22.95;;;9.30;;
22737;SDS011;11536;50.860;4.286;2023-11-21T11:19:39;22.10;;;10.02;;
22737;SDS011;11536;50.860;4.286;2023-11-21T11:35:32;16.13;;;8.90;;
22737;SDS011;11536;50.860;4.286;2023-11-21T11:38:03;14.77;;;8.05;;
22737;SDS011;11536;50.860;4.286;2023-11-21T11:40:38;16.52;;;8.23;;
22737;SDS011;11536;50.860;4.286;2023-11-21T11:43:05;13.23;;;6.93;;
22737;SDS011;11536;50.860;4.286;2023-11-21T11:45:32;14.77;;;6.78;;
22737;SDS011;11536;50.860;4.286;2023-11-21T11:48:02;12.27;;;5.90;;
22737;SDS011;11536;50.860;4.286;2023-11-21T11:50:28;12.00;;;5.72;;
22737;SDS011;11536;50.860;4.286;2023-11-21T11:52:55;13.02;;;6.43;;
22737;SDS011;11536;50.860;4.286;2023-11-21T11:55:36;12.00;;;5.28;;
22737;SDS011;11536;50.860;4.286;2023-11-21T11:58:04;11.50;;;5.55;;
22737;SDS011;11536;50.860;4.286;2023-11-21T12:02:58;10.40;;;4.80;;
22737;SDS011;11536;50.860;4.286;2023-11-21T12:05:28;10.02;;;5.18;;
22737;SDS011;11536;50.860;4.286;2023-11-21T12:08:00;12.60;;;4.88;;
22737;SDS011;11536;50.860;4.286;2023-11-21T12:10:30;8.52;;;4.68;;
22737;SDS011;11536;50.860;4.286;2023-11-21T12:13:06;8.25;;;3.72;;
22737;SDS011;11536;50.860;4.286;2023-11-21T12:15:32;8.95;;;3.92;;
22737;SDS011;11536;50.860;4.286;2023-11-21T12:18:00;10.82;;;3.83;;
22737;SDS011;11536;50.860;4.286;2023-11-21T12:20:26;12.00;;;4.28;;
22737;SDS011;11536;50.860;4.286;2023-11-21T12:22:53;6.90;;;4.03;;
22737;SDS011;11536;50.860;4.286;2023-11-21T12:27:49;10.48;;;3.85;;
22737;SDS011;11536;50.860;4.286;2023-11-21T12:30:17;7.80;;;3.20;;
22737;SDS011;11536;50.860;4.286;2023-11-21T12:32:44;7.43;;;2.92;;
22737;SDS011;11536;50.860;4.286;2023-11-21T12:35:13;9.23;;;3.58;;
22737;SDS011;11536;50.860;4.286;2023-11-21T12:37:40;8.00;;;3.53;;
22737;SDS011;11536;50.860;4.286;2023-11-21T12:40:08;9.40;;;3.60;;
22737;SDS011;11536;50.860;4.286;2023-11-21T12:42:46;10.98;;;3.92;;
22737;SDS011;11536;50.860;4.286;2023-11-21T12:47:45;13.65;;;4.35;;
22737;SDS011;11536;50.860;4.286;2023-11-21T12:50:18;14.30;;;4.60;;
22737;SDS011;11536;50.860;4.286;2023-11-21T12:52:48;16.63;;;5.22;;
22737;SDS011;11536;50.860;4.286;2023-11-21T12:55:19;14.23;;;4.95;;
22737;SDS011;11536;50.860;4.286;2023-11-21T12:57:49;14.18;;;4.82;;
22737;SDS011;11536;50.860;4.286;2023-11-21T13:00:19;9.82;;;4.45;;
22737;SDS011;11536;50.860;4.286;2023-11-21T13:02:52;14.75;;;5.35;;
22737;SDS011;11536;50.860;4.286;2023-11-21T13:05:28;14.85;;;4.78;;
22737;SDS011;11536;50.860;4.286;2023-11-21T13:08:00;11.68;;;4.38;;
22737;SDS011;11536;50.860;4.286;2023-11-21T13:10:33;11.60;;;4.53;;
22737;SDS011;11536;50.860;4.286;2023-11-21T13:13:01;12.95;;;5.03;;
22737;SDS011;11536;50.860;4.286;2023-11-21T13:15:30;14.25;;;5.22;;
22737;SDS011;11536;50.860;4.286;2023-11-21T13:17:58;14.25;;;5.68;;
22737;SDS011;11536;50.860;4.286;2023-11-21T13:20:27;16.38;;;5.60;;
22737;SDS011;11536;50.860;4.286;2023-11-21T13:22:55;12.60;;;5.47;;
22737;SDS011;11536;50.860;4.286;2023-11-21T13:25:26;12.57;;;5.00;;
22737;SDS011;11536;50.860;4.286;2023-11-21T13:27:55;12.10;;;5.53;;
22737;SDS011;11536;50.860;4.286;2023-11-21T13:30:22;13.70;;;4.97;;
22737;SDS011;11536;50.860;4.286;2023-11-21T13:32:52;10.80;;;5.60;;
22737;SDS011;11536;50.860;4.286;2023-11-21T13:35:22;10.25;;;4.32;;
22737;SDS011;11536;50.860;4.286;2023-11-21T13:38:20;10.48;;;5.18;;
22737;SDS011;11536;50.860;4.286;2023-11-21T13:40:52;8.55;;;4.70;;
22737;SDS011;11536;50.860;4.286;2023-11-21T13:43:22;11.73;;;5.47;;
22737;SDS011;11536;50.860;4.286;2023-11-21T13:45:54;10.48;;;6.00;;
22737;SDS011;11536;50.860;4.286;2023-11-21T13:48:38;9.45;;;5.38;;
22737;SDS011;11536;50.860;4.286;2023-11-21T13:51:07;8.95;;;4.95;;
22737;SDS011;11536;50.860;4.286;2023-11-21T13:53:41;8.38;;;4.82;;
22737;SDS011;11536;50.860;4.286;2023-11-21T13:56:18;8.45;;;4.43;;
22737;SDS011;11536;50.860;4.286;2023-11-21T13:58:53;8.13;;;4.78;;
22737;SDS011;11536;50.860;4.286;2023-11-21T14:01:23;7.25;;;4.07;;
22737;SDS011;11536;50.860;4.286;2023-11-21T14:03:58;8.65;;;4.78;;
22737;SDS011;11536;50.860;4.286;2023-11-21T14:06:45;7.90;;;4.45;;
22737;SDS011;11536;50.860;4.286;2023-11-21T14:09:16;8.32;;;4.40;;
22737;SDS011;11536;50.860;4.286;2023-11-21T14:11:56;8.52;;;4.57;;
22737;SDS011;11536;50.860;4.286;2023-11-21T14:14:22;8.88;;;5.03;;
22737;SDS011;11536;50.860;4.286;2023-11-21T14:16:50;9.32;;;4.65;;
22737;SDS011;11536;50.860;4.286;2023-11-21T14:19:16;10.35;;;5.05;;
22737;SDS011;11536;50.860;4.286;2023-11-21T14:21:43;7.80;;;4.30;;
22737;SDS011;11536;50.860;4.286;2023-11-21T14:24:09;7.03;;;3.45;;
22737;SDS011;11536;50.860;4.286;2023-11-21T14:26:35;7.57;;;3.50;;
22737;SDS011;11536;50.860;4.286;2023-11-21T14:29:00;5.95;;;2.92;;
22737;SDS011;11536;50.860;4.286;2023-11-21T14:31:27;7.15;;;3.33;;
22737;SDS011;11536;50.860;4.286;2023-11-21T14:33:55;6.80;;;3.00;;
22737;SDS011;11536;50.860;4.286;2023-11-21T14:36:21;8.40;;;3.35;;
22737;SDS011;11536;50.860;4.286;2023-11-21T14:38:49;6.93;;;2.58;;
22737;SDS011;11536;50.860;4.286;2023-11-21T14:41:14;7.28;;;2.35;;
22737;SDS011;11536;50.860;4.286;2023-11-21T14:43:40;6.53;;;2.45;;
22737;SDS011;11536;50.860;4.286;2023-11-21T14:46:06;6.38;;;2.40;;
22737;SDS011;11536;50.860;4.286;2023-11-21T14:48:35;5.45;;;2.20;;
22737;SDS011;11536;50.860;4.286;2023-11-21T14:51:08;4.25;;;2.05;;
22737;SDS011;11536;50.860;4.286;2023-11-21T14:53:40;5.72;;;2.33;;
22737;SDS011;11536;50.860;4.286;2023-11-21T14:56:18;3.92;;;1.88;;